createdAt,value
2023-01-13T00:00:56.091Z,0.10
2023-01-13T00:01:56.087Z,0.50
2023-01-13T00:02:56.079Z,0.10
2023-01-13T00:03:56.086Z,0.10
2023-01-13T00:04:56.086Z,0.10
2023-01-13T00:05:56.050Z,0.10
2023-01-13T00:06:56.019Z,0.20
2023-01-13T00:07:56.027Z,0.50
2023-01-13T00:08:56.009Z,0.30
2023-01-13T00:09:56.006Z,0.50
2023-01-13T00:10:55.995Z,0.10
2023-01-13T00:11:55.980Z,0.10
2023-01-13T00:12:55.964Z,0.20
2023-01-13T00:13:55.959Z,0.10
2023-01-13T00:14:55.969Z,0.50
2023-01-13T00:15:56.008Z,0.20
2023-01-13T00:16:55.927Z,0.40
2023-01-13T00:17:55.905Z,0.30
2023-01-13T00:18:55.895Z,0.10
2023-01-13T00:19:55.897Z,0.10
2023-01-13T00:20:55.903Z,0.30
2023-01-13T00:21:55.878Z,0.10
2023-01-13T00:22:55.857Z,0.50
2023-01-13T00:23:55.849Z,1.50
2023-01-13T00:24:55.842Z,0.20
2023-01-13T00:25:55.824Z,0.10
2023-01-13T00:26:55.846Z,0.00
2023-01-13T00:27:55.824Z,0.10
2023-01-13T00:28:55.795Z,0.20
2023-01-13T00:29:55.782Z,0.10
2023-01-13T00:30:55.791Z,0.10
2023-01-13T00:31:55.791Z,0.10
2023-01-13T00:32:55.760Z,0.10
2023-01-13T00:33:55.735Z,0.20
2023-01-13T00:34:55.727Z,0.10
2023-01-13T00:35:55.729Z,0.10
2023-01-13T00:36:55.704Z,0.60
2023-01-13T00:37:55.704Z,1.10
2023-01-13T00:38:55.684Z,0.10
2023-01-13T00:39:55.666Z,0.10
2023-01-13T00:40:55.663Z,0.10
2023-01-13T00:41:55.684Z,0.20
2023-01-13T00:42:55.664Z,0.70
2023-01-13T00:43:55.626Z,0.80
2023-01-13T00:44:55.657Z,0.10
2023-01-13T00:45:55.595Z,0.10
2023-01-13T00:46:55.598Z,0.10
2023-01-13T00:47:55.576Z,0.10
2023-01-13T00:48:55.585Z,0.30
2023-01-13T00:49:55.577Z,0.30
2023-01-13T00:50:55.564Z,0.30
2023-01-13T00:51:55.537Z,0.10
2023-01-13T00:52:55.546Z,0.20
2023-01-13T00:53:55.537Z,0.10
2023-01-13T00:54:55.515Z,0.20
2023-01-13T00:55:55.507Z,0.10
2023-01-13T00:56:55.484Z,0.20
2023-01-13T00:57:55.500Z,0.10
2023-01-13T00:58:55.463Z,1.70
2023-01-13T00:59:55.464Z,0.40
2023-01-13T01:00:55.521Z,0.10
2023-01-13T01:01:55.702Z,0.50
2023-01-13T01:02:55.433Z,0.30
2023-01-13T01:03:55.411Z,0.10
2023-01-13T01:04:55.426Z,0.10
2023-01-13T01:05:55.412Z,0.10
2023-01-13T01:06:55.377Z,0.10
2023-01-13T01:07:55.381Z,0.20
2023-01-13T01:08:55.365Z,0.20
2023-01-13T01:09:55.376Z,0.10
2023-01-13T01:10:55.330Z,0.20
2023-01-13T01:11:55.334Z,0.20
2023-01-13T01:12:55.352Z,0.40
2023-01-13T01:13:55.311Z,0.30
2023-01-13T01:14:55.318Z,0.20
2023-01-13T01:15:55.304Z,0.40
2023-01-13T01:16:55.284Z,0.10
2023-01-13T01:17:55.272Z,0.10
2023-01-13T01:18:55.256Z,0.10
2023-01-13T01:19:55.256Z,0.20
2023-01-13T01:20:55.215Z,0.10
2023-01-13T01:21:55.212Z,0.20
2023-01-13T01:22:55.247Z,0.40
2023-01-13T01:23:55.204Z,0.30
2023-01-13T01:24:55.171Z,0.10
2023-01-13T01:25:55.174Z,0.30
2023-01-13T01:26:55.156Z,0.20
2023-01-13T01:27:55.167Z,0.20
2023-01-13T01:28:55.129Z,0.10
2023-01-13T01:29:55.138Z,0.10
2023-01-13T01:30:55.114Z,0.30
2023-01-13T01:31:55.102Z,0.50
2023-01-13T01:32:55.097Z,0.10
2023-01-13T01:33:55.134Z,0.10
2023-01-13T01:34:55.064Z,0.10
2023-01-13T01:35:55.059Z,0.40
2023-01-13T01:36:55.052Z,1.50
2023-01-13T01:37:55.068Z,0.20
2023-01-13T01:38:55.032Z,0.10
2023-01-13T01:39:55.043Z,0.10
2023-01-13T01:40:55.009Z,0.40
2023-01-13T01:41:55.017Z,0.20
2023-01-13T01:42:54.983Z,0.10
2023-01-13T01:43:54.978Z,0.00
2023-01-13T01:44:54.977Z,0.20
2023-01-13T01:45:54.980Z,0.50
2023-01-13T01:46:54.992Z,0.10
2023-01-13T01:47:54.949Z,0.30
2023-01-13T01:48:54.916Z,0.70
2023-01-13T01:49:54.919Z,0.50
2023-01-13T01:50:54.913Z,0.10
2023-01-13T01:51:54.891Z,0.10
2023-01-13T01:52:54.877Z,0.10
2023-01-13T01:53:54.871Z,1.00
2023-01-13T01:54:54.849Z,0.20
2023-01-13T01:55:54.851Z,0.30
2023-01-13T01:56:54.819Z,0.10
2023-01-13T01:57:54.820Z,0.40
2023-01-13T01:58:54.828Z,0.10
2023-01-13T01:59:54.808Z,0.60
2023-01-13T02:00:54.958Z,0.30
2023-01-13T02:01:54.942Z,0.20
2023-01-13T02:02:54.787Z,0.00
2023-01-13T02:03:54.752Z,0.30
2023-01-13T02:04:54.735Z,0.10
2023-01-13T02:05:54.738Z,0.30
2023-01-13T02:06:54.735Z,0.10
2023-01-13T02:07:54.742Z,0.70
2023-01-13T02:08:54.737Z,0.00
2023-01-13T02:09:54.685Z,0.10
2023-01-13T02:10:54.671Z,0.00
2023-01-13T02:11:54.684Z,0.30
2023-01-13T02:12:54.655Z,0.70
2023-01-13T02:13:54.647Z,0.20
2023-01-13T02:14:54.628Z,0.50
2023-01-13T02:15:54.634Z,0.20
2023-01-13T02:16:54.621Z,0.30
2023-01-13T02:17:54.602Z,0.10
2023-01-13T02:18:54.608Z,0.00
2023-01-13T02:19:54.580Z,0.10
2023-01-13T02:20:54.568Z,0.10
2023-01-13T02:21:54.604Z,0.00
2023-01-13T02:22:54.563Z,0.00
2023-01-13T02:23:54.539Z,0.10
2023-01-13T02:24:54.561Z,0.10
2023-01-13T02:25:54.570Z,0.10
2023-01-13T02:26:54.504Z,0.50
2023-01-13T02:27:54.521Z,0.50
2023-01-13T02:28:54.473Z,0.20
2023-01-13T02:29:54.458Z,0.10
2023-01-13T02:30:54.453Z,0.20
2023-01-13T02:31:54.483Z,0.10
2023-01-13T02:32:54.488Z,0.10
2023-01-13T02:33:54.439Z,0.30
2023-01-13T02:34:54.420Z,0.10
2023-01-13T02:35:54.407Z,0.30
2023-01-13T02:36:54.396Z,0.60
2023-01-13T02:37:54.373Z,0.20
2023-01-13T02:38:54.399Z,0.10
2023-01-13T02:39:54.373Z,0.20
2023-01-13T02:40:54.358Z,0.60
2023-01-13T02:41:54.349Z,0.20
2023-01-13T02:42:54.353Z,0.10
2023-01-13T02:43:54.315Z,0.40
2023-01-13T02:44:54.309Z,0.10
2023-01-13T02:45:54.324Z,0.10
2023-01-13T02:46:54.309Z,0.20
2023-01-13T02:47:54.297Z,0.40
2023-01-13T02:48:54.266Z,0.10
2023-01-13T02:49:54.265Z,0.10
2023-01-13T02:50:54.227Z,0.30
2023-01-13T02:51:54.238Z,0.30
2023-01-13T02:52:54.228Z,0.70
2023-01-13T02:53:54.239Z,0.10
2023-01-13T02:54:54.256Z,0.20
2023-01-13T02:55:54.173Z,0.20
2023-01-13T02:56:54.163Z,0.30
2023-01-13T02:57:54.191Z,0.00
2023-01-13T02:58:54.227Z,0.20
2023-01-13T02:59:54.150Z,0.60
2023-01-13T03:00:54.183Z,0.20
2023-01-13T03:01:54.258Z,0.10
2023-01-13T03:02:54.138Z,0.20
2023-01-13T03:03:54.092Z,0.10
2023-01-13T03:04:54.169Z,0.30
2023-01-13T03:05:54.107Z,0.60
2023-01-13T03:06:54.111Z,0.00
2023-01-13T03:07:54.067Z,0.70
2023-01-13T03:08:54.099Z,0.20
2023-01-13T03:09:54.081Z,0.10
2023-01-13T03:10:54.057Z,0.10
2023-01-13T03:11:54.048Z,0.30
2023-01-13T03:12:54.043Z,0.60
2023-01-13T03:13:53.995Z,0.10
2023-01-13T03:14:54.039Z,0.20
2023-01-13T03:15:53.993Z,0.10
2023-01-13T03:16:54.049Z,0.40
2023-01-13T03:17:53.973Z,0.10
2023-01-13T03:18:53.955Z,0.20
2023-01-13T03:19:53.944Z,0.10
2023-01-13T03:20:53.955Z,0.00
2023-01-13T03:21:53.940Z,0.30
2023-01-13T03:22:53.934Z,0.20
2023-01-13T03:23:53.895Z,0.10
2023-01-13T03:24:53.935Z,0.00
2023-01-13T03:25:53.870Z,0.10
2023-01-13T03:26:53.929Z,0.00
2023-01-13T03:27:53.880Z,0.00
2023-01-13T03:28:53.863Z,0.00
2023-01-13T03:29:53.826Z,0.40
2023-01-13T03:30:53.854Z,0.20
2023-01-13T03:31:53.800Z,0.30
2023-01-13T03:32:53.808Z,0.00
2023-01-13T03:33:53.821Z,0.00
2023-01-13T03:34:53.775Z,0.30
2023-01-13T03:35:53.796Z,0.20
2023-01-13T03:36:53.781Z,0.00
2023-01-13T03:37:53.788Z,0.10
2023-01-13T03:38:53.721Z,0.20
2023-01-13T03:39:53.699Z,0.00
2023-01-13T03:40:53.712Z,0.00
2023-01-13T03:41:53.731Z,0.10
2023-01-13T03:42:53.715Z,0.10
2023-01-13T03:43:53.689Z,0.50
2023-01-13T03:44:53.663Z,0.20
2023-01-13T03:45:53.749Z,0.50
2023-01-13T03:46:53.669Z,0.10
2023-01-13T03:47:53.608Z,0.20
2023-01-13T03:48:53.625Z,0.10
2023-01-13T03:49:53.648Z,0.10
2023-01-13T03:50:53.560Z,0.70
2023-01-13T03:51:53.619Z,0.00
2023-01-13T03:52:53.599Z,0.10
2023-01-13T03:53:53.542Z,0.10
2023-01-13T03:54:53.578Z,0.30
2023-01-13T03:55:53.533Z,0.20
2023-01-13T03:56:53.524Z,0.40
2023-01-13T03:57:53.538Z,0.20
2023-01-13T03:58:53.496Z,0.40
2023-01-13T03:59:53.500Z,0.30
2023-01-13T04:00:53.633Z,0.50
2023-01-13T04:01:53.597Z,0.10
2023-01-13T04:02:53.454Z,0.20
2023-01-13T04:03:53.490Z,0.60
2023-01-13T04:04:53.440Z,0.20
2023-01-13T04:05:53.423Z,0.00
2023-01-13T04:06:53.423Z,0.30
2023-01-13T04:07:53.425Z,0.10
2023-01-13T04:08:53.371Z,0.80
2023-01-13T04:09:53.396Z,0.40
2023-01-13T04:10:53.385Z,0.20
2023-01-13T04:11:53.378Z,0.10
2023-01-13T04:12:53.383Z,0.40
2023-01-13T04:13:53.324Z,0.20
2023-01-13T04:14:53.319Z,0.10
2023-01-13T04:15:53.354Z,0.10
2023-01-13T04:16:53.352Z,0.10
2023-01-13T04:17:53.279Z,0.20
2023-01-13T04:18:53.282Z,0.10
2023-01-13T04:19:53.278Z,0.60
2023-01-13T04:20:53.259Z,0.20
2023-01-13T04:21:53.247Z,0.10
2023-01-13T04:22:53.249Z,0.10
2023-01-13T04:23:53.237Z,0.10
2023-01-13T04:24:53.241Z,0.10
2023-01-13T04:25:53.278Z,0.40
2023-01-13T04:26:53.231Z,0.00
2023-01-13T04:27:53.190Z,0.50
2023-01-13T04:28:53.243Z,0.20
2023-01-13T04:29:53.195Z,0.10
2023-01-13T04:30:53.280Z,0.10
2023-01-13T04:31:53.230Z,0.30
2023-01-13T04:32:53.183Z,0.30
2023-01-13T04:33:53.137Z,0.30
2023-01-13T04:34:53.133Z,0.70
2023-01-13T04:35:53.155Z,0.20
2023-01-13T04:36:53.118Z,0.00
2023-01-13T04:37:53.077Z,0.90
2023-01-13T04:38:53.125Z,0.50
2023-01-13T04:39:53.088Z,0.10
2023-01-13T04:40:53.084Z,0.80
2023-01-13T04:41:53.041Z,0.00
2023-01-13T05:12:53.469Z,1.20
2023-01-13T05:13:50.776Z,0.20
2023-01-13T05:14:50.774Z,0.40
2023-01-13T05:15:50.204Z,0.70
2023-01-13T05:16:50.137Z,0.20
2023-01-13T05:17:50.841Z,0.20
2023-01-13T05:18:50.148Z,0.30
2023-01-13T05:19:50.145Z,0.30
2023-01-13T05:20:50.119Z,0.60
2023-01-13T05:21:50.061Z,1.10
2023-01-13T05:22:50.042Z,0.20
2023-01-13T05:23:50.225Z,0.30
2023-01-13T05:24:50.044Z,0.50
2023-01-13T05:25:50.027Z,0.20
2023-01-13T05:26:50.368Z,0.30
2023-01-13T05:30:28.780Z,0.10
2023-01-13T05:31:28.868Z,0.60
2023-01-13T05:32:28.788Z,0.10
2023-01-13T05:33:28.750Z,0.30
2023-01-13T05:34:28.735Z,0.10
2023-01-13T05:35:28.783Z,0.30
2023-01-13T05:36:28.739Z,0.10
2023-01-13T05:37:28.763Z,0.40
2023-01-13T05:38:28.690Z,0.10
2023-01-13T05:39:28.685Z,0.00
2023-01-13T05:40:28.678Z,0.10
2023-01-13T05:41:28.746Z,0.30
2023-01-13T05:42:28.726Z,0.30
2023-01-13T05:43:28.840Z,0.20
2023-01-13T05:44:28.736Z,0.30
2023-01-13T05:45:28.782Z,0.20
2023-01-13T05:46:28.687Z,0.20
2023-01-13T05:47:28.642Z,0.40
2023-01-13T05:48:28.632Z,0.20
2023-01-13T05:49:28.623Z,0.30
2023-01-13T05:50:28.571Z,0.10
2023-01-13T05:51:28.613Z,0.10
2023-01-13T05:52:28.653Z,0.10
2023-01-13T05:53:28.710Z,0.50
2023-01-13T05:54:28.610Z,0.10
2023-01-13T05:55:28.561Z,0.70
2023-01-13T05:56:28.590Z,0.10
2023-01-13T05:57:28.540Z,0.20
2023-01-13T05:58:28.600Z,0.30
2023-01-13T05:59:28.584Z,0.40
2023-01-13T06:00:28.541Z,0.30
2023-01-13T06:01:28.675Z,1.00
2023-01-13T06:02:28.496Z,0.80
2023-01-13T06:03:28.597Z,0.60
2023-01-13T06:04:28.540Z,0.40
2023-01-13T06:05:28.430Z,0.30
2023-01-13T06:06:28.436Z,0.60
2023-01-13T06:07:28.495Z,0.60
2023-01-13T06:08:28.503Z,0.10
2023-01-13T06:09:28.532Z,0.90
2023-01-13T06:10:28.447Z,0.30
2023-01-13T06:11:28.420Z,0.20
2023-01-13T06:12:28.573Z,0.20
2023-01-13T06:13:28.382Z,0.30
2023-01-13T06:14:28.360Z,0.70
2023-01-13T06:15:28.373Z,0.60
2023-01-13T06:16:28.431Z,0.40
2023-01-13T06:17:28.322Z,0.20
2023-01-13T06:18:28.286Z,0.40
2023-01-13T06:19:28.338Z,0.30
2023-01-13T06:20:28.321Z,0.20
2023-01-13T06:21:28.234Z,0.30
2023-01-13T06:22:28.223Z,2.50
2023-01-13T06:23:28.252Z,0.60
2023-01-13T06:24:28.255Z,0.50
2023-01-13T06:25:28.231Z,0.20
2023-01-13T06:26:28.201Z,0.90
2023-01-13T06:27:28.178Z,0.80
2023-01-13T06:28:28.177Z,1.00
2023-01-13T06:29:28.217Z,1.40
2023-01-13T06:30:28.144Z,1.70
2023-01-13T06:31:28.199Z,1.50
2023-01-13T06:32:28.138Z,1.80
2023-01-13T06:33:28.146Z,1.90
2023-01-13T06:34:28.112Z,1.90
2023-01-13T06:35:28.095Z,2.50
2023-01-13T06:36:28.091Z,2.30
2023-01-13T06:37:28.062Z,1.70
2023-01-13T06:38:28.079Z,1.40
2023-01-13T06:39:28.048Z,1.00
2023-01-13T06:40:28.040Z,0.80
2023-01-13T06:41:28.028Z,2.00
2023-01-13T06:42:28.020Z,1.50
2023-01-13T06:43:28.053Z,1.00
2023-01-13T06:44:28.006Z,1.10
2023-01-13T06:45:28.007Z,0.50
2023-01-13T06:46:28.021Z,0.40
2023-01-13T06:47:27.979Z,0.20
2023-01-13T06:48:27.988Z,0.60
2023-01-13T06:49:27.976Z,0.90
2023-01-13T06:50:27.938Z,0.70
2023-01-13T06:51:27.904Z,2.90
2023-01-13T06:52:27.909Z,1.20
2023-01-13T06:53:27.930Z,1.10
2023-01-13T06:54:28.067Z,0.50
2023-01-13T06:55:28.023Z,0.70
2023-01-13T06:56:28.144Z,1.10
2023-01-13T06:57:27.886Z,0.60
2023-01-13T06:58:28.104Z,0.30
2023-01-13T06:59:27.888Z,2.80
2023-01-13T07:00:27.914Z,1.30
2023-01-13T07:01:27.956Z,1.00
2023-01-13T07:02:27.954Z,0.50
2023-01-13T07:03:27.860Z,0.20
2023-01-13T07:04:27.815Z,0.50
2023-01-13T07:05:27.818Z,0.30
2023-01-13T07:06:27.836Z,0.30
2023-01-13T07:07:27.845Z,1.60
2023-01-13T07:08:27.859Z,0.50
2023-01-13T07:09:27.772Z,0.80
2023-01-13T07:10:27.884Z,0.50
2023-01-13T07:11:27.767Z,0.90
2023-01-13T07:12:27.742Z,0.20
2023-01-13T07:13:27.737Z,0.10
2023-01-13T07:14:27.869Z,0.60
2023-01-13T07:15:27.743Z,0.30
2023-01-13T07:16:27.855Z,0.50
2023-01-13T07:17:27.661Z,1.50
2023-01-13T07:18:27.683Z,0.30
2023-01-13T07:19:27.660Z,0.50
2023-01-13T07:20:27.703Z,0.60
2023-01-13T07:21:27.661Z,0.80
2023-01-13T07:22:27.644Z,0.20
2023-01-13T07:23:27.608Z,0.40
2023-01-13T07:24:27.654Z,0.60
2023-01-13T07:25:27.682Z,0.50
2023-01-13T07:26:27.626Z,0.70
2023-01-13T07:27:27.615Z,0.40
2023-01-13T07:28:27.540Z,0.40
2023-01-13T07:29:27.592Z,1.30
2023-01-13T07:30:27.522Z,0.70
2023-01-13T07:31:27.554Z,0.60
2023-01-13T07:32:27.526Z,0.50
2023-01-13T07:33:27.505Z,1.10
2023-01-13T07:34:27.528Z,0.60
2023-01-13T07:35:27.494Z,1.50
2023-01-13T07:36:27.452Z,1.10
2023-01-13T07:37:27.481Z,1.50
2023-01-13T07:38:27.525Z,0.40
2023-01-13T07:39:27.518Z,1.00
2023-01-13T07:40:27.452Z,0.70
2023-01-13T07:41:27.462Z,0.60
2023-01-13T07:42:27.392Z,1.10
2023-01-13T07:43:27.413Z,1.20
2023-01-13T07:44:27.396Z,0.90
2023-01-13T07:45:27.445Z,1.10
2023-01-13T07:46:27.553Z,1.20
2023-01-13T07:47:27.336Z,0.90
2023-01-13T07:48:27.393Z,1.00
2023-01-13T07:49:27.327Z,2.10
2023-01-13T07:50:27.407Z,0.40
2023-01-13T07:51:27.343Z,0.40
2023-01-13T07:52:27.320Z,1.20
2023-01-13T07:53:27.319Z,1.10
2023-01-13T07:54:39.757Z,1.00
2023-01-13T07:55:28.300Z,1.20
2023-01-13T07:56:27.321Z,1.10
2023-01-13T07:57:27.282Z,1.80
2023-01-13T07:58:27.267Z,1.30
2023-01-13T07:59:27.288Z,0.90
2023-01-13T08:00:27.412Z,0.40
2023-01-13T08:01:27.358Z,0.60
2023-01-13T08:02:27.412Z,0.70
2023-01-13T08:03:27.210Z,1.70
2023-01-13T08:04:27.216Z,2.00
2023-01-13T08:05:27.258Z,2.00
2023-01-13T08:06:27.226Z,0.70
2023-01-13T08:07:27.170Z,0.30
2023-01-13T08:08:27.192Z,0.20
2023-01-13T08:09:27.234Z,0.90
2023-01-13T08:10:27.160Z,0.70
2023-01-13T08:11:27.126Z,1.20
2023-01-13T08:12:27.227Z,0.50
2023-01-13T08:13:27.075Z,0.90
2023-01-13T08:14:27.106Z,0.90
2023-01-13T08:15:27.073Z,1.40
2023-01-13T08:16:27.218Z,1.20
2023-01-13T08:17:27.105Z,0.90
2023-01-13T08:18:27.037Z,1.00
2023-01-13T08:21:45.189Z,0.50
2023-01-13T08:22:45.229Z,0.70
2023-01-13T08:23:45.148Z,1.40
2023-01-13T08:24:45.104Z,1.10
2023-01-13T08:25:45.132Z,1.20
2023-01-13T08:26:44.744Z,1.00
2023-01-13T08:27:44.742Z,0.40
2023-01-13T08:28:44.771Z,2.00
2023-01-13T08:29:44.710Z,1.00
2023-01-13T08:30:44.758Z,0.90
2023-01-13T08:31:44.699Z,0.80
2023-01-13T08:32:44.703Z,0.80
2023-01-13T08:33:44.704Z,0.50
2023-01-13T08:34:44.711Z,0.30
2023-01-13T08:35:44.663Z,0.70
2023-01-13T08:36:44.663Z,1.10
2023-01-13T08:37:44.665Z,0.80
2023-01-13T08:38:44.627Z,0.70
2023-01-13T08:39:44.617Z,0.80
2023-01-13T08:40:44.608Z,1.00
2023-01-13T08:41:44.644Z,0.60
2023-01-13T08:42:45.926Z,0.20
2023-01-13T08:43:44.601Z,1.20
2023-01-13T08:44:44.642Z,0.50
2023-01-13T08:45:44.770Z,0.50
2023-01-13T08:46:44.567Z,1.60
2023-01-13T08:47:44.549Z,0.80
2023-01-13T08:48:44.555Z,0.40
2023-01-13T08:49:44.542Z,0.50
2023-01-13T08:50:44.489Z,0.50
2023-01-13T08:51:44.558Z,0.90
2023-01-13T08:52:44.499Z,2.10
2023-01-13T08:53:44.513Z,1.00
2023-01-13T08:54:44.460Z,0.60
2023-01-13T08:55:44.435Z,1.50
2023-01-13T08:56:44.513Z,0.70
2023-01-13T08:57:44.419Z,0.80
2023-01-13T08:58:44.405Z,0.70
2023-01-13T08:59:44.408Z,1.40
2023-01-13T09:00:44.437Z,1.40
2023-01-13T09:01:44.458Z,0.30
2023-01-13T09:02:44.449Z,1.90
2023-01-13T09:03:44.352Z,1.20
2023-01-13T09:04:44.420Z,0.50
2023-01-13T09:05:44.336Z,0.50
2023-01-13T09:06:44.342Z,0.80
2023-01-13T09:07:44.430Z,1.20
2023-01-13T09:08:44.282Z,0.80
2023-01-13T09:09:44.333Z,1.10
2023-01-13T09:10:44.407Z,0.80
2023-01-13T09:11:44.297Z,0.20
2023-01-13T09:12:44.280Z,0.60
2023-01-13T09:13:44.300Z,1.00
2023-01-13T09:14:44.254Z,0.90
2023-01-13T09:15:44.272Z,2.50
2023-01-13T09:16:44.227Z,1.40
2023-01-13T09:17:44.284Z,1.10
2023-01-13T09:18:44.234Z,1.10
2023-01-13T09:19:44.243Z,1.60
2023-01-13T09:20:44.175Z,2.00
2023-01-13T09:21:45.651Z,1.70
2023-01-13T09:22:46.441Z,0.80
2023-01-13T09:23:44.173Z,0.70
2023-01-13T09:24:44.154Z,1.10
2023-01-13T09:25:44.125Z,0.90
2023-01-13T09:26:44.128Z,1.70
2023-01-13T09:27:44.131Z,0.70
2023-01-13T09:28:44.155Z,1.40
2023-01-13T09:29:44.118Z,0.40
2023-01-13T09:30:44.157Z,1.00
2023-01-13T09:31:44.507Z,0.30
2023-01-13T09:32:44.034Z,0.80
2023-01-13T09:33:44.034Z,1.10
2023-01-13T09:34:44.142Z,1.00
2023-01-13T09:35:44.052Z,1.50
2023-01-13T09:36:44.022Z,1.50
2023-01-13T09:37:43.968Z,0.20
2023-01-13T09:38:44.033Z,1.40
2023-01-13T09:39:43.953Z,1.40
2023-01-13T09:40:44.254Z,0.70
2023-01-13T09:41:44.066Z,0.90
2023-01-13T09:42:43.968Z,0.60
2023-01-13T09:43:44.043Z,0.50
2023-01-13T09:44:43.941Z,0.90
2023-01-13T09:45:43.933Z,1.40
2023-01-13T09:46:44.006Z,0.60
2023-01-13T09:47:43.901Z,0.40
2023-01-13T09:48:43.938Z,1.10
2023-01-13T09:49:43.872Z,0.90
2023-01-13T09:50:43.944Z,0.60
2023-01-13T09:51:44.118Z,1.20
2023-01-13T09:52:43.829Z,0.80
2023-01-13T09:53:43.897Z,0.50
2023-01-13T09:54:43.854Z,0.80
2023-01-13T09:55:43.803Z,1.40
2023-01-13T09:56:43.807Z,1.20
2023-01-13T09:57:43.767Z,0.70
2023-01-13T09:58:43.771Z,0.70
2023-01-13T09:59:43.871Z,1.00
2023-01-13T10:00:43.760Z,1.00
2023-01-13T10:01:43.801Z,0.40
2023-01-13T10:02:43.759Z,2.40
2023-01-13T10:03:43.793Z,1.20
2023-01-13T10:04:43.724Z,1.40
2023-01-13T10:05:43.755Z,0.40
2023-01-13T10:06:43.736Z,1.50
2023-01-13T10:07:43.706Z,1.40
2023-01-13T10:08:43.694Z,1.20
2023-01-13T10:09:43.808Z,0.60
2023-01-13T10:10:43.653Z,0.70
2023-01-13T10:11:43.604Z,0.70
2023-01-13T10:12:43.604Z,0.90
2023-01-13T10:13:43.594Z,1.30
2023-01-13T10:14:43.634Z,1.70
2023-01-13T10:15:43.685Z,0.80
2023-01-13T10:16:43.626Z,1.00
2023-01-13T10:17:43.587Z,1.10
2023-01-13T10:18:43.548Z,0.90
2023-01-13T10:19:43.549Z,0.70
2023-01-13T10:20:43.518Z,0.30
2023-01-13T10:21:43.511Z,1.70
2023-01-13T10:22:43.573Z,1.00
2023-01-13T10:23:43.484Z,0.30
2023-01-13T10:24:43.475Z,1.40
2023-01-13T10:25:43.498Z,0.80
2023-01-13T10:26:43.455Z,0.60
2023-01-13T10:27:43.708Z,0.90
2023-01-13T10:28:43.449Z,0.70
2023-01-13T10:29:43.507Z,1.20
2023-01-13T10:30:43.462Z,1.20
2023-01-13T10:31:43.417Z,1.70
2023-01-13T10:32:43.421Z,1.00
2023-01-13T10:33:43.362Z,0.90
2023-01-13T10:34:43.376Z,1.60
2023-01-13T10:35:43.355Z,1.20
2023-01-13T10:36:43.374Z,1.00
2023-01-13T10:37:43.346Z,1.70
2023-01-13T10:38:43.324Z,0.80
2023-01-13T10:39:43.317Z,1.30
2023-01-13T10:40:43.350Z,0.60
2023-01-13T10:41:43.288Z,0.90
2023-01-13T10:42:43.265Z,1.10
2023-01-13T10:43:43.295Z,1.30
2023-01-13T10:44:43.302Z,1.70
2023-01-13T10:45:43.229Z,1.60
2023-01-13T10:46:43.288Z,1.60
2023-01-13T10:47:43.219Z,1.00
2023-01-13T10:48:43.240Z,1.20
2023-01-13T10:49:43.250Z,1.00
2023-01-13T10:50:43.187Z,1.70
2023-01-13T10:51:43.219Z,1.70
2023-01-13T10:52:43.208Z,1.50
2023-01-13T10:53:43.165Z,2.70
2023-01-13T10:54:43.216Z,1.10
2023-01-13T10:55:43.125Z,1.20
2023-01-13T10:56:43.132Z,2.50
2023-01-13T10:57:43.104Z,1.50
2023-01-13T10:58:43.115Z,1.50
2023-01-13T10:59:43.121Z,1.70
2023-01-13T11:00:43.087Z,1.80
2023-01-13T11:01:43.171Z,1.50
2023-01-13T11:02:43.263Z,0.80
2023-01-13T11:03:43.174Z,1.80
2023-01-13T11:04:43.144Z,3.00
2023-01-13T11:05:43.008Z,2.10
2023-01-13T11:06:43.048Z,2.70
2023-01-13T11:07:43.023Z,1.10
2023-01-13T11:08:44.256Z,2.50
2023-01-13T11:09:42.976Z,3.00
2023-01-13T11:10:43.047Z,1.60
2023-01-13T11:11:42.982Z,3.00
2023-01-13T11:12:42.957Z,2.20
2023-01-13T11:13:43.133Z,1.40
2023-01-13T11:14:42.917Z,1.50
2023-01-13T11:15:42.958Z,2.00
2023-01-13T11:16:52.994Z,3.30
2023-01-13T11:17:43.903Z,2.90
2023-01-13T11:18:42.900Z,1.40
2023-01-13T11:19:42.896Z,1.50
2023-01-13T11:20:42.843Z,1.90
2023-01-13T11:21:42.848Z,2.00
2023-01-13T11:22:42.875Z,1.20
2023-01-13T11:23:42.842Z,1.20
2023-01-13T11:24:42.834Z,1.30
2023-01-13T11:25:42.825Z,1.00
2023-01-13T11:26:42.791Z,1.00
2023-01-13T11:27:42.808Z,4.00
2023-01-13T11:28:42.792Z,3.10
2023-01-13T11:29:49.322Z,1.70
2023-01-13T11:30:50.921Z,2.20
2023-01-13T11:31:42.746Z,2.30
2023-01-13T11:32:42.703Z,1.80
2023-01-13T11:33:42.689Z,2.00
2023-01-13T11:34:42.693Z,1.30
2023-01-13T11:35:42.657Z,1.70
2023-01-13T11:36:42.667Z,2.10
2023-01-13T11:37:42.679Z,2.50
2023-01-13T11:38:42.632Z,1.50
2023-01-13T11:39:42.610Z,2.00
2023-01-13T11:40:42.632Z,1.10
2023-01-13T11:41:42.625Z,2.30
2023-01-13T11:42:42.637Z,3.10
2023-01-13T11:43:42.583Z,3.00
2023-01-13T11:44:42.559Z,3.80
2023-01-13T11:45:42.566Z,2.20
2023-01-13T11:46:42.629Z,1.80
2023-01-13T11:47:42.521Z,1.60
2023-01-13T11:48:42.520Z,1.30
2023-01-13T11:49:42.591Z,2.30
2023-01-13T11:50:42.511Z,2.10
2023-01-13T11:51:42.489Z,2.80
2023-01-13T11:52:42.523Z,3.30
2023-01-13T11:53:42.593Z,1.60
2023-01-13T11:54:42.476Z,1.10
2023-01-13T11:55:42.466Z,3.00
2023-01-13T11:56:42.447Z,1.80
2023-01-13T11:57:42.434Z,3.10
2023-01-13T11:58:50.638Z,2.10
2023-01-13T11:59:43.442Z,2.30
2023-01-13T12:00:42.418Z,2.70
2023-01-13T12:01:42.450Z,3.10
2023-01-13T12:02:42.373Z,1.90
2023-01-13T12:03:42.353Z,2.50
2023-01-13T12:04:42.350Z,1.70
2023-01-13T12:05:42.381Z,2.50
2023-01-13T12:06:42.332Z,2.20
2023-01-13T12:07:42.343Z,3.50
2023-01-13T12:08:42.297Z,4.00
2023-01-13T12:09:42.300Z,2.40
2023-01-13T12:10:42.291Z,2.50
2023-01-13T12:11:42.283Z,4.60
2023-01-13T12:12:42.247Z,2.00
2023-01-13T12:13:42.256Z,3.10
2023-01-13T12:14:42.260Z,3.00
2023-01-13T12:15:42.226Z,5.10
2023-01-13T12:16:42.331Z,2.40
2023-01-13T12:17:42.225Z,3.20
2023-01-13T12:18:42.194Z,3.00
2023-01-13T12:19:42.175Z,2.50
2023-01-13T12:20:42.170Z,2.30
2023-01-13T12:21:42.192Z,3.10
2023-01-13T12:22:42.163Z,1.80
2023-01-13T12:23:42.153Z,1.80
2023-01-13T12:24:42.129Z,2.80
2023-01-13T12:25:42.120Z,2.70
2023-01-13T12:26:42.128Z,3.00
2023-01-13T12:27:42.087Z,1.60
2023-01-13T12:28:42.115Z,2.10
2023-01-13T12:29:42.110Z,0.70
2023-01-13T12:30:42.065Z,3.50
2023-01-13T12:31:42.091Z,1.30
2023-01-13T12:32:42.045Z,2.10
2023-01-13T12:33:42.103Z,2.60
2023-01-13T12:34:42.485Z,1.80
2023-01-13T12:35:42.241Z,2.40
2023-01-13T12:36:42.066Z,1.50
2023-01-13T12:37:42.133Z,3.10
2023-01-13T12:38:42.095Z,1.70
2023-01-13T12:39:41.978Z,2.40
2023-01-13T12:40:42.075Z,1.20
2023-01-13T12:41:41.948Z,2.30
2023-01-13T12:42:42.027Z,1.90
2023-01-13T12:43:41.947Z,1.50
2023-01-13T12:44:41.925Z,2.00
2023-01-13T12:45:41.924Z,1.90
2023-01-13T12:46:41.897Z,1.10
2023-01-13T12:47:41.923Z,2.60
2023-01-13T12:48:41.869Z,1.90
2023-01-13T12:49:41.886Z,1.30
2023-01-13T12:50:41.846Z,1.20
2023-01-13T12:51:41.844Z,2.00
2023-01-13T12:52:41.825Z,1.30
2023-01-13T12:53:41.945Z,1.40
2023-01-13T12:54:41.862Z,0.40
2023-01-13T12:55:41.796Z,1.30
2023-01-13T12:56:41.797Z,1.90
2023-01-13T12:57:41.796Z,1.50
2023-01-13T12:58:41.774Z,0.80
2023-01-13T12:59:41.735Z,3.10
2023-01-13T13:00:41.775Z,0.30
2023-01-13T13:01:41.809Z,3.00
2023-01-13T13:02:41.788Z,1.10
2023-01-13T13:03:41.724Z,1.50
2023-01-13T13:04:41.726Z,1.50
2023-01-13T13:05:41.676Z,0.50
2023-01-13T13:06:41.670Z,1.60
2023-01-13T13:07:41.664Z,2.60
2023-01-13T13:08:41.671Z,1.10
2023-01-13T13:09:41.650Z,1.20
2023-01-13T13:10:41.642Z,0.60
2023-01-13T13:11:41.685Z,1.70
2023-01-13T13:12:41.601Z,2.80
2023-01-13T13:13:41.619Z,1.10
2023-01-13T13:14:41.734Z,1.00
2023-01-13T13:15:41.579Z,1.30
2023-01-13T13:16:41.678Z,0.70
2023-01-13T13:17:41.557Z,2.10
2023-01-13T13:18:41.577Z,2.50
2023-01-13T13:19:41.533Z,2.80
2023-01-13T13:20:41.519Z,1.80
2023-01-13T13:21:41.525Z,2.70
2023-01-13T13:22:41.486Z,2.40
2023-01-13T13:23:41.512Z,2.40
2023-01-13T13:24:41.492Z,2.20
2023-01-13T13:25:41.486Z,3.70
2023-01-13T13:26:41.447Z,2.10
2023-01-13T13:27:41.436Z,2.20
2023-01-13T13:28:41.466Z,2.80
2023-01-13T13:29:41.428Z,3.60
2023-01-13T13:30:41.460Z,2.10
2023-01-13T13:31:41.390Z,2.40
2023-01-13T13:32:41.389Z,2.70
2023-01-13T13:33:41.396Z,2.30
2023-01-13T13:34:41.386Z,2.30
2023-01-13T13:35:41.351Z,1.80
2023-01-13T13:36:41.373Z,3.30
2023-01-13T13:37:41.373Z,2.50
2023-01-13T13:38:41.323Z,2.20
2023-01-13T13:39:41.346Z,1.90
2023-01-13T13:40:41.299Z,3.10
2023-01-13T13:41:41.310Z,2.40
2023-01-13T13:42:41.302Z,2.80
2023-01-13T13:43:41.302Z,1.70
2023-01-13T13:44:41.260Z,2.40
2023-01-13T13:45:41.276Z,1.60
2023-01-13T13:46:41.245Z,2.60
2023-01-13T13:47:41.246Z,1.20
2023-01-13T13:48:41.257Z,2.70
2023-01-13T13:49:41.419Z,2.10
2023-01-13T13:50:41.199Z,2.40
2023-01-13T13:51:41.210Z,2.60
2023-01-13T13:52:41.173Z,2.40
2023-01-13T13:53:41.150Z,3.00